createdAt,value
2017-05-10T00:00:02.442Z,5.83
2017-05-10T00:02:29.811Z,7.60
2017-05-10T00:04:56.987Z,6.10
2017-05-10T00:07:24.864Z,6.70
2017-05-10T00:09:52.367Z,7.25
2017-05-10T00:12:19.490Z,7.32
2017-05-10T00:14:46.622Z,4.72
2017-05-10T00:17:14.945Z,5.25
2017-05-10T00:19:42.068Z,6.57
2017-05-10T00:22:09.198Z,7.22
2017-05-10T00:24:37.717Z,6.92
2017-05-10T00:27:04.846Z,7.08
2017-05-10T00:29:31.970Z,7.20
2017-05-10T00:32:00.916Z,7.27
2017-05-10T00:34:28.039Z,7.73
2017-05-10T00:36:55.589Z,9.40
2017-05-10T00:39:23.993Z,8.37
2017-05-10T00:41:51.134Z,8.50
2017-05-10T00:44:18.293Z,9.70
2017-05-10T00:46:45.749Z,10.03
2017-05-10T00:49:12.909Z,10.00
2017-05-10T00:51:41.048Z,8.55
2017-05-10T00:54:08.521Z,10.72
2017-05-10T00:56:36.653Z,8.18
2017-05-10T00:59:03.805Z,8.50
2017-05-10T01:01:32.769Z,9.67
2017-05-10T01:03:59.914Z,8.93
2017-05-10T01:06:27.045Z,8.47
2017-05-10T01:08:54.598Z,6.95
2017-05-10T01:11:21.730Z,9.02
2017-05-10T01:13:48.878Z,7.30
2017-05-10T01:16:17.094Z,6.80
2017-05-10T01:18:44.223Z,6.40
2017-05-10T01:21:11.366Z,6.65
2017-05-10T01:23:38.834Z,6.48
2017-05-10T01:26:05.977Z,6.50
2017-05-10T01:28:33.105Z,6.77
2017-05-10T01:31:00.517Z,6.77
2017-05-10T01:33:27.706Z,5.88
2017-05-10T01:35:54.853Z,7.42
2017-05-10T01:38:22.437Z,6.23
2017-05-10T01:40:49.585Z,7.45
2017-05-10T01:43:16.748Z,7.25
2017-05-10T01:45:44.309Z,5.65
2017-05-10T01:48:11.464Z,6.27
2017-05-10T01:50:38.625Z,6.68
2017-05-10T01:53:06.861Z,6.42
2017-05-10T01:55:34.065Z,8.37
2017-05-10T01:58:03.230Z,7.42
2017-05-10T02:00:30.664Z,6.53
2017-05-10T02:02:58.822Z,6.52
2017-05-10T02:05:25.945Z,6.02
2017-05-10T02:07:55.775Z,6.05
2017-05-10T02:10:22.994Z,5.55
2017-05-10T02:12:50.873Z,6.20
2017-05-10T02:15:19.217Z,6.53
2017-05-10T02:17:47.122Z,7.05
2017-05-10T02:20:14.981Z,6.32
2017-05-10T02:22:43.251Z,6.47
2017-05-10T02:25:11.149Z,6.43
2017-05-10T02:27:38.324Z,5.93
2017-05-10T02:30:05.889Z,5.57
2017-05-10T02:32:34.146Z,4.88
2017-05-10T02:35:01.340Z,4.42
2017-05-10T02:37:28.881Z,9.30
2017-05-10T02:39:56.048Z,5.05
2017-05-10T02:42:23.938Z,6.10
2017-05-10T02:44:52.314Z,5.87
2017-05-10T02:47:19.531Z,6.17
2017-05-10T02:49:46.766Z,5.72
2017-05-10T02:52:14.223Z,7.82
2017-05-10T02:54:41.374Z,5.75
2017-05-10T02:57:08.509Z,5.98
2017-05-10T02:59:35.985Z,7.55
2017-05-10T03:02:03.135Z,7.10
2017-05-10T03:04:30.271Z,8.68
2017-05-10T03:06:57.731Z,8.27
2017-05-10T03:09:24.849Z,9.87
2017-05-10T03:11:56.779Z,11.45
2017-05-10T03:14:24.353Z,12.35
2017-05-10T03:16:51.509Z,7.33
2017-05-10T03:19:18.674Z,7.82
2017-05-10T03:21:46.154Z,8.00
2017-05-10T03:24:13.285Z,14.67
2017-05-10T03:26:40.425Z,6.07
2017-05-10T03:29:08.573Z,6.37
2017-05-10T03:31:36.443Z,8.60
2017-05-10T03:34:04.310Z,8.10
2017-05-10T03:36:32.642Z,10.13
2017-05-10T03:38:59.758Z,7.10
2017-05-10T03:41:26.885Z,10.93
2017-05-10T03:43:54.386Z,7.75
2017-05-10T03:46:21.509Z,8.37
2017-05-10T03:48:49.678Z,6.83
2017-05-10T03:51:18.188Z,10.82
2017-05-10T03:53:45.377Z,9.45
2017-05-10T03:56:13.572Z,10.28
2017-05-10T03:58:40.977Z,7.62
2017-05-10T04:01:08.101Z,7.18
2017-05-10T04:03:35.240Z,7.60
2017-05-10T04:06:02.845Z,6.67
2017-05-10T04:08:29.978Z,7.78
2017-05-10T04:10:57.114Z,8.15
2017-05-10T04:13:24.580Z,6.82
2017-05-10T04:15:51.714Z,6.18
2017-05-10T04:18:18.858Z,5.95
2017-05-10T04:20:47.267Z,5.05
2017-05-10T04:23:14.409Z,6.28
2017-05-10T04:25:41.546Z,6.00
2017-05-10T04:28:09.017Z,5.45
2017-05-10T04:30:36.170Z,6.43
2017-05-10T04:33:03.318Z,6.43
2017-05-10T04:35:30.766Z,6.27
2017-05-10T04:37:57.893Z,6.48
2017-05-10T04:40:25.026Z,5.55
2017-05-10T04:42:53.449Z,5.33
2017-05-10T04:45:20.587Z,5.87
2017-05-10T04:47:47.744Z,5.90
2017-05-10T04:50:15.193Z,5.50
2017-05-10T04:52:42.347Z,6.25
2017-05-10T04:55:10.274Z,6.10
2017-05-10T04:57:38.541Z,5.67
2017-05-10T05:00:06.406Z,6.45
2017-05-10T05:02:34.286Z,6.30
2017-05-10T05:05:01.787Z,6.15
2017-05-10T05:07:29.930Z,5.98
2017-05-10T05:09:57.061Z,5.57
2017-05-10T05:12:25.426Z,5.08
2017-05-10T05:14:53.286Z,5.37
2017-05-10T05:17:21.149Z,5.80
2017-05-10T05:19:50.313Z,5.10
2017-05-10T05:22:17.426Z,5.13
2017-05-10T05:24:44.562Z,5.27
2017-05-10T05:27:12.061Z,5.35
2017-05-10T05:29:39.190Z,5.37
2017-05-10T05:32:06.330Z,4.97
2017-05-10T05:34:33.810Z,5.40
2017-05-10T05:37:00.933Z,5.27
2017-05-10T05:39:28.065Z,5.07
2017-05-10T05:41:56.265Z,5.78
2017-05-10T05:44:23.406Z,3.85
2017-05-10T05:46:50.637Z,5.20
2017-05-10T05:49:18.283Z,5.20
2017-05-10T05:51:45.481Z,4.53
2017-05-10T05:54:12.633Z,4.27
2017-05-10T05:56:40.107Z,4.02
2017-05-10T05:59:07.239Z,5.72
2017-05-10T06:01:34.374Z,4.70
2017-05-10T06:04:02.881Z,3.45
2017-05-10T06:06:31.022Z,3.33
2017-05-10T06:08:58.171Z,3.05
2017-05-10T06:11:26.401Z,2.55
2017-05-10T06:13:53.529Z,3.52
2017-05-10T06:16:20.697Z,3.42
2017-05-10T06:18:48.957Z,3.20
2017-05-10T06:21:16.086Z,3.02
2017-05-10T06:23:43.241Z,3.70
2017-05-10T06:26:11.837Z,3.70
2017-05-10T06:28:38.990Z,3.27
2017-05-10T06:31:06.133Z,3.58
2017-05-10T06:33:33.589Z,3.30
2017-05-10T06:36:00.726Z,3.36
2017-05-10T06:38:28.878Z,3.24
2017-05-10T06:40:57.389Z,3.68
2017-05-10T06:43:24.522Z,3.72
2017-05-10T06:45:52.664Z,2.78
2017-05-10T06:48:21.578Z,3.76
2017-05-10T06:50:48.705Z,3.42
2017-05-10T06:53:16.573Z,3.52
2017-05-10T06:55:44.077Z,3.26
2017-05-10T06:58:11.227Z,2.98
2017-05-10T07:00:38.363Z,3.04
2017-05-10T07:03:05.829Z,2.44
2017-05-10T07:05:32.983Z,3.34
2017-05-10T07:08:00.118Z,3.08
2017-05-10T07:10:27.585Z,3.12
2017-05-10T07:12:54.718Z,2.56
2017-05-10T07:15:21.845Z,2.52
2017-05-10T07:17:51.086Z,2.78
2017-05-10T07:20:18.269Z,2.48
2017-05-10T07:22:46.153Z,2.52
2017-05-10T07:25:13.657Z,2.58
2017-05-10T07:27:40.785Z,3.22
2017-05-10T07:30:08.966Z,3.08
2017-05-10T07:32:36.441Z,2.50
2017-05-10T07:35:03.569Z,2.32
2017-05-10T07:37:30.702Z,2.98
2017-05-10T07:39:58.189Z,2.56
2017-05-10T07:42:25.313Z,2.52
2017-05-10T07:44:52.444Z,2.80
2017-05-10T07:47:20.602Z,3.26
2017-05-10T07:49:49.477Z,2.78
2017-05-10T07:52:16.609Z,3.40
2017-05-10T07:54:44.061Z,3.14
2017-05-10T07:57:11.201Z,3.54
2017-05-10T07:59:38.338Z,2.66
2017-05-10T08:02:05.811Z,2.98
2017-05-10T08:04:32.946Z,2.90
2017-05-10T08:07:00.102Z,2.88
2017-05-10T08:09:28.537Z,3.56
2017-05-10T08:11:56.423Z,2.54
2017-05-10T08:14:23.550Z,2.86
2017-05-10T08:16:52.506Z,3.30
2017-05-10T08:19:19.668Z,2.92
2017-05-10T08:21:47.547Z,3.08
2017-05-10T08:24:17.117Z,2.70
2017-05-10T08:26:44.249Z,2.72
2017-05-10T08:29:12.413Z,2.78
2017-05-10T08:31:39.890Z,3.16
2017-05-10T08:34:07.036Z,2.50
2017-05-10T08:36:34.178Z,2.92
2017-05-10T08:39:02.479Z,2.78
2017-05-10T08:41:29.618Z,3.10
2017-05-10T08:43:56.735Z,2.86
2017-05-10T08:46:24.222Z,2.58
2017-05-10T08:48:51.354Z,2.72
2017-05-10T08:51:18.474Z,2.62
2017-05-10T08:53:46.703Z,2.78
2017-05-10T08:56:13.837Z,2.56
2017-05-10T08:58:40.974Z,2.48
2017-05-10T09:01:09.184Z,2.60
2017-05-10T09:03:36.325Z,2.56
2017-05-10T09:06:03.470Z,2.50
2017-05-10T09:08:30.922Z,2.46
2017-05-10T09:10:58.051Z,2.56
2017-05-10T09:13:25.177Z,3.10
2017-05-10T09:15:52.585Z,2.66
2017-05-10T09:18:19.717Z,2.82
2017-05-10T09:20:48.054Z,2.40
2017-05-10T09:23:16.513Z,2.80
2017-05-10T09:25:44.379Z,2.64
2017-05-10T09:28:12.267Z,2.84
2017-05-10T09:30:39.718Z,2.78
2017-05-10T09:33:07.606Z,2.02
2017-05-10T09:35:34.729Z,2.50
2017-05-10T09:38:03.741Z,2.78
2017-05-10T09:40:30.877Z,2.44
2017-05-10T09:42:59.782Z,2.42
2017-05-10T09:45:27.273Z,2.34
2017-05-10T09:47:54.401Z,2.60
2017-05-10T09:50:21.537Z,2.40
2017-05-10T09:52:50.765Z,2.40
2017-05-10T09:55:17.948Z,2.52
2017-05-10T09:57:45.062Z,2.18
2017-05-10T10:00:12.522Z,2.50
2017-05-10T10:02:39.661Z,2.40
2017-05-10T10:05:06.793Z,2.80
2017-05-10T10:07:34.951Z,2.44
2017-05-10T10:10:02.834Z,2.52
2017-05-10T10:12:29.961Z,2.36
2017-05-10T10:14:58.182Z,2.20
2017-05-10T10:17:25.330Z,2.04
2017-05-10T10:19:52.590Z,2.10
2017-05-10T10:22:20.042Z,2.18
2017-05-10T10:24:47.163Z,2.14
2017-05-10T10:27:14.307Z,1.74
2017-05-10T10:29:42.677Z,2.14
2017-05-10T10:32:09.809Z,1.96
2017-05-10T10:34:37.694Z,2.00
2017-05-10T10:37:05.199Z,2.48
2017-05-10T10:39:32.353Z,2.22
2017-05-10T10:41:59.490Z,2.26
2017-05-10T10:44:26.939Z,2.08
2017-05-10T10:46:55.114Z,1.74
2017-05-10T10:49:22.277Z,1.90
2017-05-10T10:51:49.864Z,2.02
2017-05-10T10:54:17.738Z,2.02
2017-05-10T10:56:45.618Z,1.90
2017-05-10T10:59:13.834Z,2.34
2017-05-10T11:01:40.968Z,1.80
2017-05-10T11:04:08.089Z,2.14
2017-05-10T11:06:35.590Z,1.80
2017-05-10T11:09:02.766Z,1.74
2017-05-10T11:11:29.933Z,1.76
2017-05-10T11:13:59.059Z,1.70
2017-05-10T11:16:26.182Z,1.46
2017-05-10T11:18:54.041Z,1.84
2017-05-10T11:21:23.161Z,1.82
2017-05-10T11:23:50.274Z,1.34
2017-05-10T11:26:18.022Z,1.58
2017-05-10T11:28:45.470Z,1.20
2017-05-10T11:31:12.637Z,1.58
2017-05-10T11:33:39.778Z,1.74
2017-05-10T11:36:07.213Z,1.70
2017-05-10T11:38:35.392Z,1.40
2017-05-10T11:41:02.513Z,1.64
2017-05-10T11:43:29.993Z,1.92
2017-05-10T11:45:57.126Z,1.76
2017-05-10T11:48:24.245Z,1.70
2017-05-10T11:50:52.461Z,1.56
2017-05-10T11:53:19.586Z,1.96
2017-05-10T11:55:49.556Z,1.58
2017-05-10T11:58:17.248Z,1.80
2017-05-10T12:00:45.461Z,1.46
2017-05-10T12:03:31.458Z,1.50
2017-05-10T12:06:04.865Z,1.90
2017-05-10T12:08:33.229Z,1.24
2017-05-10T12:11:01.263Z,1.88
2017-05-10T12:13:29.571Z,1.46
2017-05-10T12:15:58.159Z,1.30
2017-05-10T12:18:25.431Z,1.26
2017-05-10T12:20:53.389Z,1.30
2017-05-10T12:23:20.945Z,1.50
2017-05-10T12:25:48.094Z,1.36
2017-05-10T12:28:16.243Z,1.44
2017-05-10T12:30:43.718Z,1.26
2017-05-10T12:33:10.854Z,1.38
2017-05-10T12:35:37.997Z,1.38
2017-05-10T12:38:05.443Z,1.46
2017-05-10T12:40:32.569Z,1.18
2017-05-10T12:43:00.437Z,1.26
2017-05-10T12:45:29.297Z,1.00
2017-05-10T12:47:56.428Z,1.18
2017-05-10T12:50:23.549Z,1.40
2017-05-10T12:52:50.968Z,0.96
2017-05-10T12:55:18.845Z,1.10
2017-05-10T12:57:47.761Z,1.10
2017-05-10T13:00:15.242Z,1.12
2017-05-10T13:02:43.157Z,1.30
2017-05-10T13:05:11.022Z,0.96
2017-05-10T13:07:39.242Z,1.30
2017-05-10T13:10:06.378Z,1.26
2017-05-10T13:12:33.505Z,1.38
2017-05-10T13:15:00.949Z,1.10
2017-05-10T13:17:29.070Z,1.00
2017-05-10T13:19:56.217Z,1.20
2017-05-10T13:22:24.705Z,0.60
2017-05-10T13:24:51.966Z,0.96
2017-05-10T13:27:19.194Z,1.18
2017-05-10T13:29:47.885Z,1.02
2017-05-10T13:32:15.038Z,1.14
2017-05-10T13:34:42.163Z,0.90
2017-05-10T13:37:09.649Z,0.98
2017-05-10T13:39:36.800Z,1.42
2017-05-10T13:42:03.945Z,1.38
2017-05-10T13:44:31.429Z,1.58
2017-05-10T13:46:59.585Z,1.16
2017-05-10T13:49:26.708Z,1.10
2017-05-10T13:51:54.182Z,1.32
2017-05-10T13:54:21.302Z,1.14
2017-05-10T13:56:48.422Z,1.36
2017-05-10T13:59:16.662Z,1.12
2017-05-10T14:01:43.790Z,1.24
2017-05-10T14:04:10.929Z,1.24
2017-05-10T14:06:38.411Z,1.10
2017-05-10T14:09:05.541Z,1.02
2017-05-10T14:11:32.693Z,0.98
2017-05-10T14:14:00.156Z,1.16
2017-05-10T14:16:27.278Z,1.32
2017-05-10T14:18:54.409Z,0.92
2017-05-10T14:21:23.517Z,0.78
2017-05-10T14:23:50.655Z,1.46
2017-05-10T14:26:19.565Z,0.80
2017-05-10T14:28:47.050Z,0.92
2017-05-10T14:31:14.189Z,0.84
2017-05-10T14:33:41.334Z,0.92
2017-05-10T14:36:08.746Z,1.32
2017-05-10T14:38:35.906Z,1.28
2017-05-10T14:41:03.809Z,0.90
2017-05-10T14:43:31.282Z,1.60
2017-05-10T14:45:58.436Z,1.28
2017-05-10T14:48:25.581Z,0.98
2017-05-10T14:50:53.013Z,1.06
2017-05-10T14:53:21.113Z,0.70
2017-05-10T14:55:48.241Z,1.10
2017-05-10T14:58:16.538Z,1.20
2017-05-10T15:00:43.678Z,1.00
2017-05-10T15:03:10.843Z,1.04
2017-05-10T15:05:38.401Z,1.10
2017-05-10T15:08:05.529Z,1.14
2017-05-10T15:10:32.670Z,1.10
2017-05-10T15:13:00.140Z,1.36
2017-05-10T15:15:27.273Z,1.02
2017-05-10T15:17:54.381Z,1.50
2017-05-10T15:20:23.344Z,1.04
2017-05-10T15:22:50.507Z,1.00
2017-05-10T15:25:18.101Z,1.40
2017-05-10T15:27:46.321Z,1.24
2017-05-10T15:30:13.496Z,1.46
2017-05-10T15:32:40.637Z,1.56
2017-05-10T15:35:09.023Z,1.32
2017-05-10T15:37:36.166Z,1.40
2017-05-10T15:40:03.297Z,1.30
2017-05-10T15:42:31.771Z,1.82
2017-05-10T15:44:58.899Z,1.72
2017-05-10T15:47:26.043Z,1.32
2017-05-10T15:49:53.526Z,1.20
2017-05-10T15:52:20.665Z,1.50
2017-05-10T15:54:47.786Z,1.20
2017-05-10T15:57:16.030Z,12.72
2017-05-10T15:59:44.002Z,9.82
2017-05-10T16:02:13.154Z,10.26
2017-05-10T16:04:41.641Z,1.44
2017-05-10T16:07:08.781Z,1.58
2017-05-10T16:09:36.909Z,1.54
2017-05-10T16:12:05.864Z,1.66
2017-05-10T16:14:32.989Z,3.38
2017-05-10T16:17:00.104Z,2.66
2017-05-10T16:19:27.521Z,2.60
2017-05-10T16:21:54.665Z,2.36
2017-05-10T16:24:21.791Z,2.64
2017-05-10T16:26:49.261Z,2.34
2017-05-10T16:29:16.397Z,3.14
2017-05-10T16:31:43.529Z,3.10
2017-05-10T16:34:10.933Z,3.04
2017-05-10T16:36:38.053Z,3.02
2017-05-10T16:39:05.177Z,2.94
2017-05-10T16:41:33.497Z,2.82
2017-05-10T16:44:00.706Z,3.34
2017-05-10T16:46:27.869Z,2.82
2017-05-10T16:48:55.302Z,3.46
2017-05-10T16:51:22.470Z,3.56
2017-05-10T16:53:49.602Z,3.66
2017-05-10T16:56:17.817Z,4.54
2017-05-10T16:58:44.945Z,4.52
2017-05-10T17:01:13.114Z,4.26
2017-05-10T17:03:40.597Z,4.62
2017-05-10T17:06:07.721Z,4.44
2017-05-10T17:08:34.858Z,5.22
2017-05-10T17:11:02.350Z,4.48
2017-05-10T17:13:30.517Z,4.70
2017-05-10T17:15:57.654Z,5.28
2017-05-10T17:18:25.129Z,3.76
2017-05-10T17:20:52.262Z,4.80
2017-05-10T17:23:19.395Z,5.24
2017-05-10T17:25:47.602Z,4.96
2017-05-10T17:28:14.738Z,4.80
2017-05-10T17:30:45.964Z,6.06
2017-05-10T17:33:13.453Z,4.60
2017-05-10T17:35:40.602Z,4.84
2017-05-10T17:38:07.733Z,5.42
2017-05-10T17:40:35.205Z,5.88
2017-05-10T17:43:02.370Z,6.12
2017-05-10T17:45:29.546Z,6.98
2017-05-10T17:47:57.065Z,7.56
2017-05-10T17:50:24.221Z,6.78
2017-05-10T17:52:51.353Z,6.42
2017-05-10T17:55:18.816Z,7.82
2017-05-10T17:57:45.942Z,6.50
2017-05-10T18:00:13.082Z,6.50
2017-05-10T18:02:41.359Z,5.50
2017-05-10T18:05:08.489Z,6.24
2017-05-10T18:07:36.358Z,5.94
2017-05-10T18:10:05.258Z,6.08
2017-05-10T18:12:32.390Z,5.72
2017-05-10T18:15:00.266Z,5.78
2017-05-10T18:17:29.212Z,5.00
2017-05-10T18:19:56.343Z,6.04
2017-05-10T18:22:23.488Z,5.96
2017-05-10T18:24:50.970Z,5.96
2017-05-10T18:27:18.126Z,5.20
2017-05-10T18:29:45.254Z,5.42
2017-05-10T18:32:12.713Z,5.70
2017-05-10T18:34:39.910Z,5.60
2017-05-10T18:37:07.841Z,6.02
2017-05-10T18:39:36.151Z,6.28
2017-05-10T18:42:03.301Z,5.66
2017-05-10T18:44:30.478Z,5.62
2017-05-10T18:46:59.005Z,5.38
2017-05-10T18:49:26.145Z,5.56
2017-05-10T18:51:53.284Z,6.10
2017-05-10T18:54:20.741Z,5.04
2017-05-10T18:56:47.877Z,6.02
2017-05-10T18:59:15.004Z,6.16
2017-05-10T19:01:43.397Z,6.36
2017-05-10T19:04:10.545Z,7.24
2017-05-10T19:06:37.682Z,8.06
2017-05-10T19:09:06.197Z,6.06
2017-05-10T19:11:33.329Z,6.88
2017-05-10T19:14:00.499Z,6.26
2017-05-10T19:16:28.996Z,6.16
2017-05-10T19:18:56.137Z,6.74
2017-05-10T19:21:23.261Z,6.04
2017-05-10T19:23:51.666Z,6.72
2017-05-10T19:26:18.805Z,7.38
2017-05-10T19:28:45.933Z,7.02
2017-05-10T19:31:14.689Z,7.14
2017-05-10T19:33:41.830Z,6.74
2017-05-10T19:36:08.985Z,6.34
2017-05-10T19:38:37.214Z,7.30
2017-05-10T19:41:04.344Z,5.86
2017-05-10T19:43:32.471Z,7.92
2017-05-10T19:45:59.990Z,8.98
2017-05-10T19:48:27.200Z,8.82
2017-05-10T19:50:55.850Z,7.18
2017-05-10T19:53:24.330Z,6.52
2017-05-10T19:55:51.473Z,6.50
2017-05-10T19:58:18.655Z,6.82
2017-05-10T20:00:46.881Z,9.02
2017-05-10T20:03:14.046Z,10.08
2017-05-10T20:05:41.354Z,9.34
2017-05-10T20:08:08.494Z,7.34
2017-05-10T20:10:36.638Z,7.28
2017-05-10T20:13:04.063Z,10.34
2017-05-10T20:15:31.213Z,15.26
2017-05-10T20:17:58.371Z,6.24
2017-05-10T20:20:26.705Z,7.76
2017-05-10T20:22:53.841Z,8.54
2017-05-10T20:25:21.008Z,9.08
2017-05-10T20:27:49.514Z,7.00
2017-05-10T20:30:16.657Z,7.56
2017-05-10T20:32:43.802Z,7.44
2017-05-10T20:35:11.241Z,6.64
2017-05-10T20:37:38.379Z,6.40
2017-05-10T20:40:05.514Z,6.32
2017-05-10T20:42:33.710Z,5.72
2017-05-10T20:45:00.837Z,6.60
2017-05-10T20:47:28.710Z,5.18
2017-05-10T20:49:56.215Z,6.12
2017-05-10T20:52:23.349Z,5.18
2017-05-10T20:54:50.473Z,5.92
2017-05-10T20:57:17.966Z,5.50
2017-05-10T20:59:45.085Z,5.60
2017-05-10T21:02:12.233Z,4.96
2017-05-10T21:04:40.564Z,5.52
2017-05-10T21:07:07.689Z,4.80
2017-05-10T21:09:34.822Z,4.64
2017-05-10T21:12:02.296Z,5.02
2017-05-10T21:14:29.426Z,4.78
2017-05-10T21:16:58.590Z,5.02
2017-05-10T21:19:27.123Z,4.72
2017-05-10T21:21:54.250Z,5.64
2017-05-10T21:24:21.379Z,6.24
2017-05-10T21:26:48.882Z,5.52
2017-05-10T21:29:16.014Z,4.62
2017-05-10T21:31:43.157Z,4.90
2017-05-10T21:34:10.634Z,4.78
2017-05-10T21:36:37.774Z,4.18
2017-05-10T21:39:04.942Z,4.18
2017-05-10T21:41:33.117Z,3.82
2017-05-10T21:44:00.253Z,3.78
2017-05-10T21:46:27.392Z,4.58
2017-05-10T21:48:54.825Z,4.80
2017-05-10T21:51:21.962Z,4.38
2017-05-10T21:53:49.843Z,4.84
2017-05-10T21:56:18.154Z,5.14
2017-05-10T21:58:45.294Z,4.50
2017-05-10T22:01:12.421Z,4.76
2017-05-10T22:03:40.930Z,4.70
2017-05-10T22:06:08.069Z,5.54
2017-05-10T22:08:35.275Z,4.66
2017-05-10T22:11:04.956Z,4.90
2017-05-10T22:13:32.145Z,5.32
2017-05-10T22:15:59.294Z,5.22
2017-05-10T22:18:26.813Z,6.62
2017-05-10T22:20:53.956Z,6.48
2017-05-10T22:23:22.134Z,5.28
2017-05-10T22:25:49.729Z,5.06
2017-05-10T22:28:16.875Z,4.98
2017-05-10T22:30:44.745Z,5.40
2017-05-10T22:33:13.893Z,4.70
2017-05-10T22:35:41.089Z,5.58
2017-05-10T22:38:08.965Z,5.50
2017-05-10T22:40:36.457Z,5.02
2017-05-10T22:43:03.638Z,5.70
2017-05-10T22:45:30.782Z,5.72
2017-05-10T22:47:58.232Z,5.76
2017-05-10T22:50:25.386Z,5.86
2017-05-10T22:52:52.534Z,7.04
2017-05-10T22:55:19.974Z,6.54
2017-05-10T22:57:47.129Z,6.18
2017-05-10T23:00:14.288Z,6.58
2017-05-10T23:02:42.557Z,5.52
2017-05-10T23:05:09.711Z,6.08
2017-05-10T23:07:36.836Z,7.22
2017-05-10T23:10:04.318Z,6.98
2017-05-10T23:12:31.493Z,6.00
2017-05-10T23:14:59.385Z,5.56
2017-05-10T23:17:26.558Z,5.34
2017-05-10T23:19:53.699Z,6.88
2017-05-10T23:22:20.818Z,5.80
2017-05-10T23:24:48.725Z,6.16
2017-05-10T23:27:15.853Z,5.66
2017-05-10T23:29:42.989Z,5.44
2017-05-10T23:32:12.191Z,5.98
2017-05-10T23:34:39.338Z,5.94
2017-05-10T23:37:07.558Z,6.02
2017-05-10T23:39:35.044Z,5.62
2017-05-10T23:42:02.930Z,5.22
2017-05-10T23:44:30.090Z,4.94
2017-05-10T23:46:58.294Z,5.58
2017-05-10T23:49:25.454Z,5.08
2017-05-10T23:51:52.601Z,4.52
2017-05-10T23:54:19.779Z,5.62
2017-05-10T23:56:47.674Z,4.42
2017-05-10T23:59:16.560Z,5.04
